sensor_id;sensor_type;location;lat;lon;timestamp;P1;durP1;ratioP1;P2;durP2;ratioP2
34204;SDS011;20471;49.680;20.074;2023-04-03T00:01:26;3.90;;;3.40;;
34204;SDS011;20471;49.680;20.074;2023-04-03T00:03:54;4.30;;;3.70;;
34204;SDS011;20471;49.680;20.074;2023-04-03T00:06:23;3.60;;;3.20;;
34204;SDS011;20471;49.680;20.074;2023-04-03T00:08:52;3.50;;;3.20;;
34204;SDS011;20471;49.680;20.074;2023-04-03T00:11:20;3.80;;;3.20;;
34204;SDS011;20471;49.680;20.074;2023-04-03T00:13:49;5.40;;;3.50;;
34204;SDS011;20471;49.680;20.074;2023-04-03T00:16:17;3.80;;;3.30;;
34204;SDS011;20471;49.680;20.074;2023-04-03T00:18:45;4.20;;;3.60;;
34204;SDS011;20471;49.680;20.074;2023-04-03T00:21:13;3.40;;;3.10;;
34204;SDS011;20471;49.680;20.074;2023-04-03T00:23:41;3.50;;;3.20;;
34204;SDS011;20471;49.680;20.074;2023-04-03T00:26:10;4.20;;;3.80;;
34204;SDS011;20471;49.680;20.074;2023-04-03T00:28:38;4.10;;;3.70;;
34204;SDS011;20471;49.680;20.074;2023-04-03T00:31:06;3.90;;;3.30;;
34204;SDS011;20471;49.680;20.074;2023-04-03T00:33:35;4.10;;;3.80;;
34204;SDS011;20471;49.680;20.074;2023-04-03T00:36:07;4.50;;;3.70;;
34204;SDS011;20471;49.680;20.074;2023-04-03T00:38:39;2.40;;;2.20;;
34204;SDS011;20471;49.680;20.074;2023-04-03T00:41:07;3.50;;;3.10;;
34204;SDS011;20471;49.680;20.074;2023-04-03T00:43:36;4.10;;;3.00;;
34204;SDS011;20471;49.680;20.074;2023-04-03T00:46:04;3.60;;;2.50;;
34204;SDS011;20471;49.680;20.074;2023-04-03T00:48:32;3.20;;;2.90;;
34204;SDS011;20471;49.680;20.074;2023-04-03T00:51:06;3.50;;;2.90;;
34204;SDS011;20471;49.680;20.074;2023-04-03T00:53:47;3.70;;;3.20;;
34204;SDS011;20471;49.680;20.074;2023-04-03T00:56:20;2.90;;;2.60;;
34204;SDS011;20471;49.680;20.074;2023-04-03T00:58:53;3.20;;;2.80;;
34204;SDS011;20471;49.680;20.074;2023-04-03T01:01:26;2.50;;;2.20;;
34204;SDS011;20471;49.680;20.074;2023-04-03T01:03:58;3.10;;;2.50;;
34204;SDS011;20471;49.680;20.074;2023-04-03T01:06:28;1.90;;;1.80;;
34204;SDS011;20471;49.680;20.074;2023-04-03T01:09:00;2.20;;;2.00;;
34204;SDS011;20471;49.680;20.074;2023-04-03T01:11:29;3.10;;;2.30;;
34204;SDS011;20471;49.680;20.074;2023-04-03T01:13:57;3.10;;;2.10;;
34204;SDS011;20471;49.680;20.074;2023-04-03T01:16:25;2.60;;;2.40;;
34204;SDS011;20471;49.680;20.074;2023-04-03T01:18:54;2.50;;;2.10;;
34204;SDS011;20471;49.680;20.074;2023-04-03T01:24:21;3.80;;;2.40;;
34204;SDS011;20471;49.680;20.074;2023-04-03T01:26:59;3.30;;;2.50;;
34204;SDS011;20471;49.680;20.074;2023-04-03T01:29:29;2.70;;;2.20;;
34204;SDS011;20471;49.680;20.074;2023-04-03T01:31:58;2.50;;;2.20;;
34204;SDS011;20471;49.680;20.074;2023-04-03T01:34:28;2.80;;;2.20;;
34204;SDS011;20471;49.680;20.074;2023-04-03T01:39:30;2.20;;;2.00;;
34204;SDS011;20471;49.680;20.074;2023-04-03T01:41:58;2.10;;;1.90;;
34204;SDS011;20471;49.680;20.074;2023-04-03T01:44:27;2.50;;;2.30;;
34204;SDS011;20471;49.680;20.074;2023-04-03T01:46:55;3.20;;;2.30;;
34204;SDS011;20471;49.680;20.074;2023-04-03T01:49:23;3.00;;;2.30;;
34204;SDS011;20471;49.680;20.074;2023-04-03T01:51:51;2.80;;;2.50;;
34204;SDS011;20471;49.680;20.074;2023-04-03T01:54:19;3.00;;;2.40;;
34204;SDS011;20471;49.680;20.074;2023-04-03T01:56:47;2.90;;;2.40;;
34204;SDS011;20471;49.680;20.074;2023-04-03T01:59:15;2.90;;;2.30;;
34204;SDS011;20471;49.680;20.074;2023-04-03T02:01:44;2.70;;;2.20;;
34204;SDS011;20471;49.680;20.074;2023-04-03T02:04:12;1.80;;;1.70;;
34204;SDS011;20471;49.680;20.074;2023-04-03T02:06:40;2.20;;;1.80;;
34204;SDS011;20471;49.680;20.074;2023-04-03T02:09:08;1.50;;;1.40;;
34204;SDS011;20471;49.680;20.074;2023-04-03T02:11:36;2.80;;;1.70;;
34204;SDS011;20471;49.680;20.074;2023-04-03T02:14:04;4.00;;;2.00;;
34204;SDS011;20471;49.680;20.074;2023-04-03T02:16:33;2.50;;;2.10;;
34204;SDS011;20471;49.680;20.074;2023-04-03T02:19:01;2.10;;;1.90;;
34204;SDS011;20471;49.680;20.074;2023-04-03T02:21:29;2.30;;;2.00;;
34204;SDS011;20471;49.680;20.074;2023-04-03T02:23:57;2.60;;;1.30;;
34204;SDS011;20471;49.680;20.074;2023-04-03T02:26:25;1.70;;;1.50;;
34204;SDS011;20471;49.680;20.074;2023-04-03T02:28:53;2.50;;;1.80;;
34204;SDS011;20471;49.680;20.074;2023-04-03T02:31:21;2.10;;;1.90;;
34204;SDS011;20471;49.680;20.074;2023-04-03T02:33:50;3.70;;;1.60;;
34204;SDS011;20471;49.680;20.074;2023-04-03T02:36:18;1.50;;;1.40;;
34204;SDS011;20471;49.680;20.074;2023-04-03T02:38:46;1.50;;;1.40;;
34204;SDS011;20471;49.680;20.074;2023-04-03T02:41:15;2.00;;;1.80;;
34204;SDS011;20471;49.680;20.074;2023-04-03T02:43:43;1.80;;;1.60;;
34204;SDS011;20471;49.680;20.074;2023-04-03T02:46:11;3.30;;;2.00;;
34204;SDS011;20471;49.680;20.074;2023-04-03T02:48:41;2.90;;;1.80;;
34204;SDS011;20471;49.680;20.074;2023-04-03T02:51:09;2.20;;;1.70;;
34204;SDS011;20471;49.680;20.074;2023-04-03T02:53:37;2.20;;;1.60;;
34204;SDS011;20471;49.680;20.074;2023-04-03T02:56:05;3.10;;;1.80;;
34204;SDS011;20471;49.680;20.074;2023-04-03T02:58:33;2.00;;;1.60;;
34204;SDS011;20471;49.680;20.074;2023-04-03T03:01:02;2.80;;;2.00;;
34204;SDS011;20471;49.680;20.074;2023-04-03T03:03:30;1.90;;;1.70;;
34204;SDS011;20471;49.680;20.074;2023-04-03T03:06:06;3.20;;;1.90;;
34204;SDS011;20471;49.680;20.074;2023-04-03T03:08:36;2.40;;;1.90;;
34204;SDS011;20471;49.680;20.074;2023-04-03T03:11:05;1.50;;;1.40;;
34204;SDS011;20471;49.680;20.074;2023-04-03T03:13:34;1.50;;;1.40;;
34204;SDS011;20471;49.680;20.074;2023-04-03T03:16:03;1.60;;;1.50;;
34204;SDS011;20471;49.680;20.074;2023-04-03T03:18:31;2.00;;;1.80;;
34204;SDS011;20471;49.680;20.074;2023-04-03T03:21:00;2.80;;;1.60;;
34204;SDS011;20471;49.680;20.074;2023-04-03T03:23:30;2.70;;;2.00;;
34204;SDS011;20471;49.680;20.074;2023-04-03T03:26:01;2.80;;;2.20;;
34204;SDS011;20471;49.680;20.074;2023-04-03T03:28:33;3.00;;;2.30;;
34204;SDS011;20471;49.680;20.074;2023-04-03T03:31:03;3.10;;;2.80;;
34204;SDS011;20471;49.680;20.074;2023-04-03T03:33:55;2.40;;;2.20;;
34204;SDS011;20471;49.680;20.074;2023-04-03T03:36:23;3.20;;;2.90;;
34204;SDS011;20471;49.680;20.074;2023-04-03T03:38:51;2.80;;;2.50;;
34204;SDS011;20471;49.680;20.074;2023-04-03T03:41:20;3.80;;;2.70;;
34204;SDS011;20471;49.680;20.074;2023-04-03T03:43:48;4.40;;;3.10;;
34204;SDS011;20471;49.680;20.074;2023-04-03T03:46:16;3.00;;;2.30;;
34204;SDS011;20471;49.680;20.074;2023-04-03T03:48:44;3.50;;;2.60;;
34204;SDS011;20471;49.680;20.074;2023-04-03T03:51:12;4.30;;;3.10;;
34204;SDS011;20471;49.680;20.074;2023-04-03T03:53:40;5.60;;;3.40;;
34204;SDS011;20471;49.680;20.074;2023-04-03T03:56:08;4.60;;;3.40;;
34204;SDS011;20471;49.680;20.074;2023-04-03T03:58:36;3.10;;;2.60;;
34204;SDS011;20471;49.680;20.074;2023-04-03T04:01:05;4.00;;;2.70;;
34204;SDS011;20471;49.680;20.074;2023-04-03T04:03:34;3.00;;;2.20;;
34204;SDS011;20471;49.680;20.074;2023-04-03T04:06:03;5.80;;;3.70;;
34204;SDS011;20471;49.680;20.074;2023-04-03T04:08:31;11.20;;;6.50;;
34204;SDS011;20471;49.680;20.074;2023-04-03T04:10:59;11.00;;;6.30;;
34204;SDS011;20471;49.680;20.074;2023-04-03T04:13:27;3.90;;;3.20;;
34204;SDS011;20471;49.680;20.074;2023-04-03T04:15:55;8.80;;;5.40;;
34204;SDS011;20471;49.680;20.074;2023-04-03T04:18:23;6.00;;;3.90;;
34204;SDS011;20471;49.680;20.074;2023-04-03T04:20:51;2.70;;;2.00;;
34204;SDS011;20471;49.680;20.074;2023-04-03T04:23:20;2.60;;;2.00;;
34204;SDS011;20471;49.680;20.074;2023-04-03T04:25:48;2.70;;;2.10;;
34204;SDS011;20471;49.680;20.074;2023-04-03T04:28:17;3.60;;;2.70;;
34204;SDS011;20471;49.680;20.074;2023-04-03T04:30:46;4.70;;;4.30;;
34204;SDS011;20471;49.680;20.074;2023-04-03T04:33:14;4.20;;;2.60;;
34204;SDS011;20471;49.680;20.074;2023-04-03T04:35:42;3.70;;;3.30;;
34204;SDS011;20471;49.680;20.074;2023-04-03T04:38:11;6.10;;;5.20;;
34204;SDS011;20471;49.680;20.074;2023-04-03T04:40:39;5.70;;;3.60;;
34204;SDS011;20471;49.680;20.074;2023-04-03T04:43:07;2.60;;;2.40;;
34204;SDS011;20471;49.680;20.074;2023-04-03T04:45:37;6.20;;;4.60;;
34204;SDS011;20471;49.680;20.074;2023-04-03T04:48:05;5.70;;;3.30;;
34204;SDS011;20471;49.680;20.074;2023-04-03T04:50:33;3.20;;;2.70;;
34204;SDS011;20471;49.680;20.074;2023-04-03T04:53:01;4.70;;;3.50;;
34204;SDS011;20471;49.680;20.074;2023-04-03T04:55:30;5.70;;;3.80;;
34204;SDS011;20471;49.680;20.074;2023-04-03T04:57:58;4.00;;;3.40;;
34204;SDS011;20471;49.680;20.074;2023-04-03T05:00:26;3.90;;;2.80;;
34204;SDS011;20471;49.680;20.074;2023-04-03T05:02:54;5.80;;;3.90;;
34204;SDS011;20471;49.680;20.074;2023-04-03T05:05:23;2.30;;;2.00;;
34204;SDS011;20471;49.680;20.074;2023-04-03T05:07:51;2.70;;;2.50;;
34204;SDS011;20471;49.680;20.074;2023-04-03T05:10:19;5.40;;;3.70;;
34204;SDS011;20471;49.680;20.074;2023-04-03T05:12:47;4.90;;;3.80;;
34204;SDS011;20471;49.680;20.074;2023-04-03T05:15:15;3.10;;;2.50;;
34204;SDS011;20471;49.680;20.074;2023-04-03T05:17:43;2.70;;;2.00;;
34204;SDS011;20471;49.680;20.074;2023-04-03T05:20:11;2.90;;;2.40;;
34204;SDS011;20471;49.680;20.074;2023-04-03T05:22:40;5.40;;;2.80;;
34204;SDS011;20471;49.680;20.074;2023-04-03T05:25:08;2.80;;;2.40;;
34204;SDS011;20471;49.680;20.074;2023-04-03T05:27:36;3.50;;;2.50;;
34204;SDS011;20471;49.680;20.074;2023-04-03T05:30:05;3.40;;;2.40;;
34204;SDS011;20471;49.680;20.074;2023-04-03T05:32:34;2.70;;;2.50;;
34204;SDS011;20471;49.680;20.074;2023-04-03T05:35:02;2.20;;;2.00;;
34204;SDS011;20471;49.680;20.074;2023-04-03T05:37:30;3.10;;;2.50;;
34204;SDS011;20471;49.680;20.074;2023-04-03T05:39:58;2.80;;;2.40;;
34204;SDS011;20471;49.680;20.074;2023-04-03T05:42:26;3.50;;;2.20;;
34204;SDS011;20471;49.680;20.074;2023-04-03T05:44:55;2.90;;;2.60;;
34204;SDS011;20471;49.680;20.074;2023-04-03T05:47:23;3.90;;;3.00;;
34204;SDS011;20471;49.680;20.074;2023-04-03T05:49:51;4.10;;;3.10;;
34204;SDS011;20471;49.680;20.074;2023-04-03T05:52:21;3.50;;;2.60;;
34204;SDS011;20471;49.680;20.074;2023-04-03T05:55:00;3.40;;;2.60;;
34204;SDS011;20471;49.680;20.074;2023-04-03T05:57:29;5.20;;;3.40;;
34204;SDS011;20471;49.680;20.074;2023-04-03T05:59:57;5.40;;;3.00;;
34204;SDS011;20471;49.680;20.074;2023-04-03T06:02:25;4.10;;;2.50;;
34204;SDS011;20471;49.680;20.074;2023-04-03T06:04:53;2.70;;;2.30;;
34204;SDS011;20471;49.680;20.074;2023-04-03T06:07:22;3.70;;;3.10;;
34204;SDS011;20471;49.680;20.074;2023-04-03T06:09:55;3.90;;;2.90;;
34204;SDS011;20471;49.680;20.074;2023-04-03T06:12:24;3.00;;;2.70;;
34204;SDS011;20471;49.680;20.074;2023-04-03T06:14:52;3.30;;;2.50;;
34204;SDS011;20471;49.680;20.074;2023-04-03T06:17:20;4.40;;;3.50;;
34204;SDS011;20471;49.680;20.074;2023-04-03T06:19:49;3.60;;;3.10;;
34204;SDS011;20471;49.680;20.074;2023-04-03T06:22:17;4.00;;;3.60;;
34204;SDS011;20471;49.680;20.074;2023-04-03T06:24:46;6.80;;;3.30;;
34204;SDS011;20471;49.680;20.074;2023-04-03T06:27:14;3.90;;;2.90;;
34204;SDS011;20471;49.680;20.074;2023-04-03T06:29:43;4.20;;;3.30;;
34204;SDS011;20471;49.680;20.074;2023-04-03T06:32:11;4.60;;;3.60;;
34204;SDS011;20471;49.680;20.074;2023-04-03T06:34:40;5.20;;;4.00;;
34204;SDS011;20471;49.680;20.074;2023-04-03T06:37:17;3.60;;;2.90;;
34204;SDS011;20471;49.680;20.074;2023-04-03T06:39:48;3.60;;;2.80;;
34204;SDS011;20471;49.680;20.074;2023-04-03T06:42:16;5.30;;;3.20;;
34204;SDS011;20471;49.680;20.074;2023-04-03T06:44:44;5.00;;;2.90;;
34204;SDS011;20471;49.680;20.074;2023-04-03T06:47:13;4.70;;;3.30;;
34204;SDS011;20471;49.680;20.074;2023-04-03T06:49:42;10.60;;;6.90;;
34204;SDS011;20471;49.680;20.074;2023-04-03T06:52:10;5.60;;;3.20;;
34204;SDS011;20471;49.680;20.074;2023-04-03T06:54:40;4.00;;;3.40;;
34204;SDS011;20471;49.680;20.074;2023-04-03T06:57:08;7.00;;;4.00;;
34204;SDS011;20471;49.680;20.074;2023-04-03T06:59:36;7.20;;;4.60;;
34204;SDS011;20471;49.680;20.074;2023-04-03T07:02:04;5.20;;;3.90;;
34204;SDS011;20471;49.680;20.074;2023-04-03T07:04:32;5.60;;;3.40;;
34204;SDS011;20471;49.680;20.074;2023-04-03T07:07:01;4.80;;;3.40;;
34204;SDS011;20471;49.680;20.074;2023-04-03T07:09:29;5.60;;;3.30;;
34204;SDS011;20471;49.680;20.074;2023-04-03T07:11:57;7.70;;;4.00;;
34204;SDS011;20471;49.680;20.074;2023-04-03T07:14:25;3.70;;;3.20;;
34204;SDS011;20471;49.680;20.074;2023-04-03T07:16:53;5.20;;;3.30;;
34204;SDS011;20471;49.680;20.074;2023-04-03T07:19:22;3.10;;;2.80;;
34204;SDS011;20471;49.680;20.074;2023-04-03T07:21:50;3.40;;;3.10;;
34204;SDS011;20471;49.680;20.074;2023-04-03T07:24:19;13.80;;;4.20;;
34204;SDS011;20471;49.680;20.074;2023-04-03T07:33:35;4.30;;;3.20;;
34204;SDS011;20471;49.680;20.074;2023-04-03T07:36:04;5.10;;;3.30;;
34204;SDS011;20471;49.680;20.074;2023-04-03T07:38:34;5.70;;;3.90;;
34204;SDS011;20471;49.680;20.074;2023-04-03T07:41:03;4.20;;;3.20;;
34204;SDS011;20471;49.680;20.074;2023-04-03T07:43:32;4.40;;;3.40;;
34204;SDS011;20471;49.680;20.074;2023-04-03T07:46:00;5.80;;;3.50;;
34204;SDS011;20471;49.680;20.074;2023-04-03T07:48:29;4.00;;;3.50;;
34204;SDS011;20471;49.680;20.074;2023-04-03T07:51:00;6.40;;;3.90;;
34204;SDS011;20471;49.680;20.074;2023-04-03T07:53:30;6.40;;;3.90;;
34204;SDS011;20471;49.680;20.074;2023-04-03T07:55:58;4.50;;;3.90;;
34204;SDS011;20471;49.680;20.074;2023-04-03T07:58:29;6.00;;;4.00;;
34204;SDS011;20471;49.680;20.074;2023-04-03T08:00:57;4.50;;;3.80;;
34204;SDS011;20471;49.680;20.074;2023-04-03T08:03:26;4.70;;;3.80;;
34204;SDS011;20471;49.680;20.074;2023-04-03T08:05:54;4.20;;;3.40;;
34204;SDS011;20471;49.680;20.074;2023-04-03T08:08:22;5.10;;;3.50;;
34204;SDS011;20471;49.680;20.074;2023-04-03T08:10:51;7.90;;;3.80;;
34204;SDS011;20471;49.680;20.074;2023-04-03T08:13:21;5.70;;;3.70;;
34204;SDS011;20471;49.680;20.074;2023-04-03T08:15:50;6.70;;;4.50;;
34204;SDS011;20471;49.680;20.074;2023-04-03T08:18:18;6.70;;;3.90;;
34204;SDS011;20471;49.680;20.074;2023-04-03T08:23:19;8.50;;;6.20;;
34204;SDS011;20471;49.680;20.074;2023-04-03T08:25:47;8.40;;;4.40;;
34204;SDS011;20471;49.680;20.074;2023-04-03T08:28:15;5.40;;;3.70;;
34204;SDS011;20471;49.680;20.074;2023-04-03T08:30:43;10.40;;;3.90;;
34204;SDS011;20471;49.680;20.074;2023-04-03T08:33:12;8.20;;;4.50;;
34204;SDS011;20471;49.680;20.074;2023-04-03T08:35:42;9.80;;;6.80;;
34204;SDS011;20471;49.680;20.074;2023-04-03T08:38:10;12.70;;;7.20;;
34204;SDS011;20471;49.680;20.074;2023-04-03T08:40:39;13.30;;;7.40;;
34204;SDS011;20471;49.680;20.074;2023-04-03T08:43:18;11.80;;;7.10;;
34204;SDS011;20471;49.680;20.074;2023-04-03T08:46:02;9.80;;;5.50;;
34204;SDS011;20471;49.680;20.074;2023-04-03T08:48:35;11.90;;;5.10;;
34204;SDS011;20471;49.680;20.074;2023-04-03T08:51:17;9.70;;;6.00;;
34204;SDS011;20471;49.680;20.074;2023-04-03T08:54:05;10.90;;;5.40;;
34204;SDS011;20471;49.680;20.074;2023-04-03T08:56:42;11.20;;;5.70;;
34204;SDS011;20471;49.680;20.074;2023-04-03T08:59:12;82.80;;;43.90;;
34204;SDS011;20471;49.680;20.074;2023-04-03T09:01:45;59.10;;;33.10;;
34204;SDS011;20471;49.680;20.074;2023-04-03T09:04:14;11.20;;;5.60;;
34204;SDS011;20471;49.680;20.074;2023-04-03T09:06:45;9.20;;;5.30;;
34204;SDS011;20471;49.680;20.074;2023-04-03T09:15:09;21.40;;;11.20;;
34204;SDS011;20471;49.680;20.074;2023-04-03T09:20:17;7.90;;;5.20;;
34204;SDS011;20471;49.680;20.074;2023-04-03T09:22:52;11.10;;;7.10;;
34204;SDS011;20471;49.680;20.074;2023-04-03T09:25:27;8.40;;;5.60;;
34204;SDS011;20471;49.680;20.074;2023-04-03T09:28:01;8.00;;;4.40;;
34204;SDS011;20471;49.680;20.074;2023-04-03T09:30:30;8.20;;;4.00;;
34204;SDS011;20471;49.680;20.074;2023-04-03T09:32:59;11.60;;;5.90;;
34204;SDS011;20471;49.680;20.074;2023-04-03T09:35:34;11.40;;;6.50;;
34204;SDS011;20471;49.680;20.074;2023-04-03T09:38:21;11.80;;;6.50;;
34204;SDS011;20471;49.680;20.074;2023-04-03T09:43:58;19.00;;;10.60;;
34204;SDS011;20471;49.680;20.074;2023-04-03T09:46:29;14.80;;;8.90;;
34204;SDS011;20471;49.680;20.074;2023-04-03T09:49:00;15.10;;;8.20;;
34204;SDS011;20471;49.680;20.074;2023-04-03T09:51:30;6.40;;;4.60;;
34204;SDS011;20471;49.680;20.074;2023-04-03T09:53:59;8.10;;;4.40;;
34204;SDS011;20471;49.680;20.074;2023-04-03T09:56:28;7.20;;;4.00;;
34204;SDS011;20471;49.680;20.074;2023-04-03T10:01:30;15.40;;;6.70;;
34204;SDS011;20471;49.680;20.074;2023-04-03T10:04:13;10.40;;;5.30;;
34204;SDS011;20471;49.680;20.074;2023-04-03T10:06:47;12.40;;;5.90;;
34204;SDS011;20471;49.680;20.074;2023-04-03T10:14:36;14.70;;;8.60;;
34204;SDS011;20471;49.680;20.074;2023-04-03T10:17:23;21.60;;;13.10;;
34204;SDS011;20471;49.680;20.074;2023-04-03T10:26:00;5.40;;;3.30;;
34204;SDS011;20471;49.680;20.074;2023-04-03T10:29:03;5.10;;;3.20;;
34204;SDS011;20471;49.680;20.074;2023-04-03T10:31:43;3.60;;;2.60;;
34204;SDS011;20471;49.680;20.074;2023-04-03T10:34:31;3.30;;;2.40;;
34204;SDS011;20471;49.680;20.074;2023-04-03T10:42:15;4.50;;;2.40;;
34204;SDS011;20471;49.680;20.074;2023-04-03T10:44:57;4.80;;;2.90;;
34204;SDS011;20471;49.680;20.074;2023-04-03T10:53:59;4.30;;;2.90;;
34204;SDS011;20471;49.680;20.074;2023-04-03T10:56:38;6.20;;;3.60;;
34204;SDS011;20471;49.680;20.074;2023-04-03T11:02:16;4.80;;;2.50;;
34204;SDS011;20471;49.680;20.074;2023-04-03T11:05:03;5.30;;;2.70;;
34204;SDS011;20471;49.680;20.074;2023-04-03T11:07:46;7.10;;;2.70;;
34204;SDS011;20471;49.680;20.074;2023-04-03T11:16:33;4.30;;;2.80;;
34204;SDS011;20471;49.680;20.074;2023-04-03T11:19:14;10.50;;;3.00;;
34204;SDS011;20471;49.680;20.074;2023-04-03T11:21:52;5.90;;;2.90;;
34204;SDS011;20471;49.680;20.074;2023-04-03T11:24:27;8.10;;;4.40;;
34204;SDS011;20471;49.680;20.074;2023-04-03T11:26:59;6.70;;;4.40;;
34204;SDS011;20471;49.680;20.074;2023-04-03T11:29:31;6.40;;;3.40;;
34204;SDS011;20471;49.680;20.074;2023-04-03T11:34:49;10.00;;;5.30;;
34204;SDS011;20471;49.680;20.074;2023-04-03T11:37:36;7.80;;;4.00;;
34204;SDS011;20471;49.680;20.074;2023-04-03T11:40:08;5.00;;;3.20;;
34204;SDS011;20471;49.680;20.074;2023-04-03T11:42:51;6.80;;;3.60;;
34204;SDS011;20471;49.680;20.074;2023-04-03T11:47:52;4.90;;;3.50;;
34204;SDS011;20471;49.680;20.074;2023-04-03T11:53:10;7.00;;;4.70;;
34204;SDS011;20471;49.680;20.074;2023-04-03T12:00:55;5.90;;;3.40;;
34204;SDS011;20471;49.680;20.074;2023-04-03T12:26:34;6.30;;;3.80;;
34204;SDS011;20471;49.680;20.074;2023-04-03T12:34:49;9.50;;;5.50;;
34204;SDS011;20471;49.680;20.074;2023-04-03T12:40:09;6.10;;;3.60;;
34204;SDS011;20471;49.680;20.074;2023-04-03T12:45:47;9.80;;;4.60;;
34204;SDS011;20471;49.680;20.074;2023-04-03T12:48:24;11.70;;;6.20;;
34204;SDS011;20471;49.680;20.074;2023-04-03T12:50:55;8.70;;;5.00;;
34204;SDS011;20471;49.680;20.074;2023-04-03T12:53:25;9.00;;;5.60;;
34204;SDS011;20471;49.680;20.074;2023-04-03T12:56:18;10.00;;;4.60;;
34204;SDS011;20471;49.680;20.074;2023-04-03T12:58:47;8.90;;;4.90;;
34204;SDS011;20471;49.680;20.074;2023-04-03T13:01:17;9.90;;;4.50;;
34204;SDS011;20471;49.680;20.074;2023-04-03T13:03:55;6.50;;;4.20;;
34204;SDS011;20471;49.680;20.074;2023-04-03T13:06:39;8.00;;;4.50;;
34204;SDS011;20471;49.680;20.074;2023-04-03T13:12:10;11.10;;;4.40;;
34204;SDS011;20471;49.680;20.074;2023-04-03T13:14:50;7.60;;;5.10;;
34204;SDS011;20471;49.680;20.074;2023-04-03T13:17:22;6.80;;;4.40;;
34204;SDS011;20471;49.680;20.074;2023-04-03T13:19:51;6.80;;;4.10;;
34204;SDS011;20471;49.680;20.074;2023-04-03T13:22:30;8.70;;;4.90;;
34204;SDS011;20471;49.680;20.074;2023-04-03T13:25:06;9.70;;;5.60;;
34204;SDS011;20471;49.680;20.074;2023-04-03T13:27:37;7.80;;;4.50;;
34204;SDS011;20471;49.680;20.074;2023-04-03T13:33:01;10.30;;;5.10;;
34204;SDS011;20471;49.680;20.074;2023-04-03T13:35:38;6.50;;;4.60;;
34204;SDS011;20471;49.680;20.074;2023-04-03T13:41:05;9.80;;;4.50;;
34204;SDS011;20471;49.680;20.074;2023-04-03T13:43:52;10.90;;;5.30;;
34204;SDS011;20471;49.680;20.074;2023-04-03T13:46:25;6.10;;;3.90;;
34204;SDS011;20471;49.680;20.074;2023-04-03T13:48:55;8.30;;;4.90;;
34204;SDS011;20471;49.680;20.074;2023-04-03T13:51:25;12.00;;;4.70;;
34204;SDS011;20471;49.680;20.074;2023-04-03T13:53:56;8.60;;;4.80;;
34204;SDS011;20471;49.680;20.074;2023-04-03T13:56:35;7.10;;;4.50;;
34204;SDS011;20471;49.680;20.074;2023-04-03T14:04:30;5.60;;;4.00;;
34204;SDS011;20471;49.680;20.074;2023-04-03T14:07:19;7.90;;;4.70;;
34204;SDS011;20471;49.680;20.074;2023-04-03T14:09:48;8.80;;;4.00;;
34204;SDS011;20471;49.680;20.074;2023-04-03T14:12:27;7.30;;;4.30;;
34204;SDS011;20471;49.680;20.074;2023-04-03T14:17:28;7.30;;;3.60;;
34204;SDS011;20471;49.680;20.074;2023-04-03T14:19:57;5.60;;;3.60;;
34204;SDS011;20471;49.680;20.074;2023-04-03T14:22:28;6.60;;;3.60;;
34204;SDS011;20471;49.680;20.074;2023-04-03T14:25:00;7.70;;;4.30;;
34204;SDS011;20471;49.680;20.074;2023-04-03T14:27:38;5.40;;;3.40;;
34204;SDS011;20471;49.680;20.074;2023-04-03T14:30:12;5.10;;;3.70;;
34204;SDS011;20471;49.680;20.074;2023-04-03T14:32:43;4.50;;;3.30;;
34204;SDS011;20471;49.680;20.074;2023-04-03T14:35:12;6.40;;;3.80;;
34204;SDS011;20471;49.680;20.074;2023-04-03T14:37:41;7.40;;;4.10;;
34204;SDS011;20471;49.680;20.074;2023-04-03T14:40:11;5.90;;;3.80;;
34204;SDS011;20471;49.680;20.074;2023-04-03T14:42:42;13.80;;;7.00;;
34204;SDS011;20471;49.680;20.074;2023-04-03T14:45:11;7.30;;;5.40;;
34204;SDS011;20471;49.680;20.074;2023-04-03T14:47:42;7.30;;;4.70;;
34204;SDS011;20471;49.680;20.074;2023-04-03T14:50:15;9.00;;;4.50;;
34204;SDS011;20471;49.680;20.074;2023-04-03T14:52:49;7.00;;;4.20;;
34204;SDS011;20471;49.680;20.074;2023-04-03T14:55:20;8.30;;;4.70;;
34204;SDS011;20471;49.680;20.074;2023-04-03T14:57:50;8.40;;;5.00;;
34204;SDS011;20471;49.680;20.074;2023-04-03T15:00:20;9.50;;;4.60;;
34204;SDS011;20471;49.680;20.074;2023-04-03T15:02:49;8.40;;;4.40;;
34204;SDS011;20471;49.680;20.074;2023-04-03T15:05:18;6.30;;;4.60;;
34204;SDS011;20471;49.680;20.074;2023-04-03T15:07:50;11.30;;;5.50;;
34204;SDS011;20471;49.680;20.074;2023-04-03T15:10:22;14.80;;;7.60;;
34204;SDS011;20471;49.680;20.074;2023-04-03T15:12:56;20.70;;;14.20;;
34204;SDS011;20471;49.680;20.074;2023-04-03T15:15:27;23.40;;;15.00;;
34204;SDS011;20471;49.680;20.074;2023-04-03T15:20:26;8.20;;;5.10;;
34204;SDS011;20471;49.680;20.074;2023-04-03T15:22:56;9.10;;;5.10;;
34204;SDS011;20471;49.680;20.074;2023-04-03T15:25:27;9.00;;;5.60;;
34204;SDS011;20471;49.680;20.074;2023-04-03T15:27:56;9.50;;;5.80;;
34204;SDS011;20471;49.680;20.074;2023-04-03T15:30:25;9.20;;;5.70;;
34204;SDS011;20471;49.680;20.074;2023-04-03T15:32:53;17.30;;;8.80;;
34204;SDS011;20471;49.680;20.074;2023-04-03T15:35:21;12.20;;;7.60;;
34204;SDS011;20471;49.680;20.074;2023-04-03T15:37:50;10.40;;;6.70;;
34204;SDS011;20471;49.680;20.074;2023-04-03T15:40:18;11.70;;;7.40;;
34204;SDS011;20471;49.680;20.074;2023-04-03T15:42:46;10.50;;;7.00;;
34204;SDS011;20471;49.680;20.074;2023-04-03T15:45:15;8.80;;;6.40;;
34204;SDS011;20471;49.680;20.074;2023-04-03T15:47:43;12.60;;;8.00;;
34204;SDS011;20471;49.680;20.074;2023-04-03T15:50:11;15.30;;;8.30;;
34204;SDS011;20471;49.680;20.074;2023-04-03T15:52:39;11.00;;;6.30;;
34204;SDS011;20471;49.680;20.074;2023-04-03T15:55:07;13.50;;;7.00;;
34204;SDS011;20471;49.680;20.074;2023-04-03T15:57:36;12.10;;;6.90;;
34204;SDS011;20471;49.680;20.074;2023-04-03T16:00:04;10.70;;;6.40;;
34204;SDS011;20471;49.680;20.074;2023-04-03T16:02:33;10.20;;;7.70;;
34204;SDS011;20471;49.680;20.074;2023-04-03T16:05:02;9.80;;;5.00;;
34204;SDS011;20471;49.680;20.074;2023-04-03T16:07:30;11.30;;;6.10;;
34204;SDS011;20471;49.680;20.074;2023-04-03T16:09:58;9.10;;;5.50;;
34204;SDS011;20471;49.680;20.074;2023-04-03T16:12:27;11.80;;;6.30;;
34204;SDS011;20471;49.680;20.074;2023-04-03T16:14:58;11.70;;;5.70;;
34204;SDS011;20471;49.680;20.074;2023-04-03T16:17:27;10.50;;;6.20;;
34204;SDS011;20471;49.680;20.074;2023-04-03T16:19:56;9.40;;;5.60;;
34204;SDS011;20471;49.680;20.074;2023-04-03T16:22:24;9.50;;;5.00;;
34204;SDS011;20471;49.680;20.074;2023-04-03T16:24:55;10.20;;;5.20;;
34204;SDS011;20471;49.680;20.074;2023-04-03T16:27:23;10.40;;;6.90;;
34204;SDS011;20471;49.680;20.074;2023-04-03T16:29:54;11.40;;;6.40;;
34204;SDS011;20471;49.680;20.074;2023-04-03T16:32:23;13.30;;;7.20;;
34204;SDS011;20471;49.680;20.074;2023-04-03T16:34:54;18.60;;;10.70;;
34204;SDS011;20471;49.680;20.074;2023-04-03T16:37:22;19.40;;;11.80;;
34204;SDS011;20471;49.680;20.074;2023-04-03T16:39:51;26.40;;;12.40;;
34204;SDS011;20471;49.680;20.074;2023-04-03T16:42:20;17.10;;;10.70;;
34204;SDS011;20471;49.680;20.074;2023-04-03T16:44:48;16.10;;;10.40;;
34204;SDS011;20471;49.680;20.074;2023-04-03T16:47:16;13.80;;;7.40;;
34204;SDS011;20471;49.680;20.074;2023-04-03T16:49:46;10.70;;;6.60;;
34204;SDS011;20471;49.680;20.074;2023-04-03T16:52:14;11.40;;;6.20;;
34204;SDS011;20471;49.680;20.074;2023-04-03T16:54:43;13.00;;;6.60;;
34204;SDS011;20471;49.680;20.074;2023-04-03T16:57:11;11.70;;;6.30;;
34204;SDS011;20471;49.680;20.074;2023-04-03T16:59:40;16.00;;;7.90;;